createdAt,value
2022-09-10T00:03:55.966Z,1.57
2022-09-10T00:07:58.291Z,1.17
2022-09-10T00:12:00.020Z,1.77
2022-09-10T00:16:03.754Z,1.27
2022-09-10T00:20:06.533Z,2.20
2022-09-10T00:24:08.515Z,2.10
2022-09-10T00:28:10.260Z,2.40
2022-09-10T00:32:11.963Z,2.40
2022-09-10T00:36:19.740Z,2.40
2022-09-10T00:40:21.439Z,1.97
2022-09-10T00:44:43.511Z,1.90
2022-09-10T00:48:45.227Z,1.60
2022-09-10T00:52:47.480Z,1.70
2022-09-10T00:56:49.693Z,1.20
2022-09-10T01:00:54.535Z,1.33
2022-09-10T01:04:56.393Z,1.20
2022-09-10T01:08:58.716Z,1.07
2022-09-10T01:13:29.629Z,0.93
2022-09-10T01:17:45.666Z,1.03
2022-09-10T01:22:05.478Z,0.93
2022-09-10T01:26:47.261Z,0.70
2022-09-10T01:30:53.476Z,0.90
2022-09-10T01:35:17.683Z,0.93
2022-09-10T01:39:20.113Z,0.90
2022-09-10T01:43:22.999Z,1.00
2022-09-10T01:48:00.912Z,0.90
2022-09-10T01:52:37.186Z,0.80
2022-09-10T01:56:54.002Z,0.90
2022-09-10T02:01:42.575Z,0.80
2022-09-10T02:05:51.531Z,0.73
2022-09-10T02:10:07.604Z,0.87
2022-09-10T02:14:15.526Z,0.90
2022-09-10T02:18:24.536Z,0.93
2022-09-10T02:22:26.439Z,0.80
2022-09-10T02:26:28.159Z,0.93
2022-09-10T02:30:30.143Z,0.90
2022-09-10T02:34:32.448Z,0.90
2022-09-10T02:38:36.939Z,0.90
2022-09-10T02:42:38.929Z,1.00
2022-09-10T02:46:40.693Z,0.90
2022-09-10T02:50:45.790Z,1.03
2022-09-10T02:54:49.124Z,0.90
2022-09-10T02:58:51.122Z,1.20
2022-09-10T03:02:52.846Z,1.10
2022-09-10T03:06:54.985Z,1.17
2022-09-10T03:10:58.134Z,1.10
2022-09-10T03:14:59.918Z,0.90
2022-09-10T03:19:01.643Z,1.27
2022-09-10T03:23:05.956Z,1.10
2022-09-10T03:27:08.543Z,1.13
2022-09-10T03:31:11.050Z,1.00
2022-09-10T03:35:13.755Z,1.20
2022-09-10T03:39:16.285Z,1.57
2022-09-10T03:43:20.028Z,1.50
2022-09-10T03:47:21.940Z,1.70
2022-09-10T03:51:23.662Z,1.67
2022-09-10T03:55:25.453Z,1.90
2022-09-10T03:59:27.126Z,1.57
2022-09-10T04:03:29.236Z,1.80
2022-09-10T04:07:30.905Z,1.33
2022-09-10T04:11:33.256Z,1.77
2022-09-10T04:15:35.002Z,1.63
2022-09-10T04:19:37.977Z,1.70
2022-09-10T04:23:42.324Z,1.97
2022-09-10T04:27:44.289Z,2.07
2022-09-10T04:31:46.749Z,1.87
2022-09-10T04:35:48.563Z,2.37
2022-09-10T04:39:51.561Z,1.90
2022-09-10T04:43:53.315Z,1.90
2022-09-10T04:47:56.021Z,1.57
2022-09-10T04:51:57.804Z,1.80
2022-09-10T04:55:59.471Z,1.70
2022-09-10T05:00:01.418Z,1.70
2022-09-10T05:04:04.079Z,1.90
2022-09-10T05:08:07.430Z,1.43
2022-09-10T05:12:09.245Z,1.80
2022-09-10T05:16:11.765Z,1.60
2022-09-10T05:20:14.049Z,1.70
2022-09-10T05:24:16.507Z,1.60
2022-09-10T05:28:18.223Z,1.80
2022-09-10T05:32:19.971Z,1.80
2022-09-10T05:36:21.856Z,1.77
2022-09-10T05:40:23.667Z,1.60
2022-09-10T05:44:25.392Z,1.50
2022-09-10T05:48:27.165Z,1.87
2022-09-10T05:52:30.935Z,1.30
2022-09-10T05:56:35.893Z,1.43
2022-09-10T06:00:37.608Z,1.30
2022-09-10T06:04:40.599Z,0.90
2022-09-10T06:08:42.519Z,0.93
2022-09-10T06:12:47.954Z,1.00
2022-09-10T06:16:49.981Z,0.80
2022-09-10T06:21:05.344Z,0.80
2022-09-10T06:25:07.647Z,0.60
2022-09-10T06:29:09.479Z,0.75
2022-09-10T06:33:13.201Z,0.60
2022-09-10T06:37:15.131Z,0.60
2022-09-10T06:41:17.226Z,0.53
2022-09-10T06:45:19.360Z,0.60
2022-09-10T06:49:21.713Z,0.60
2022-09-10T06:53:24.700Z,0.63
2022-09-10T06:57:26.875Z,0.60
2022-09-10T07:01:31.801Z,0.75
2022-09-10T07:05:39.481Z,0.50
2022-09-10T07:09:41.267Z,0.88
2022-09-10T07:13:43.287Z,0.68
2022-09-10T07:17:47.505Z,0.60
2022-09-10T07:21:50.147Z,0.50
2022-09-10T07:25:52.009Z,0.60
2022-09-10T07:29:53.703Z,0.93
2022-09-10T07:33:57.672Z,0.63
2022-09-10T07:38:00.203Z,0.65
2022-09-10T07:42:01.909Z,0.88
2022-09-10T07:46:04.403Z,0.70
2022-09-10T07:50:07.189Z,0.57
2022-09-10T07:54:08.952Z,0.70
2022-09-10T07:58:10.895Z,0.77
2022-09-10T08:02:15.464Z,0.90
2022-09-10T08:06:17.496Z,0.70
2022-09-10T08:10:19.605Z,0.80
2022-09-10T08:14:21.370Z,0.80
2022-09-10T08:18:23.214Z,0.77
2022-09-10T08:22:25.288Z,0.70
2022-09-10T08:26:27.481Z,0.50
2022-09-10T08:30:30.439Z,2.70
2022-09-10T08:34:32.154Z,1.00
2022-09-10T08:38:40.038Z,0.97
2022-09-10T08:42:47.027Z,0.93
2022-09-10T08:47:29.980Z,0.60
2022-09-10T08:51:40.014Z,0.70
2022-09-10T08:55:44.169Z,0.80
2022-09-10T08:59:50.187Z,0.70
2022-09-10T09:03:51.878Z,0.57
2022-09-10T09:07:53.799Z,0.60
2022-09-10T09:12:33.980Z,0.70
2022-09-10T09:17:05.146Z,0.50
2022-09-10T09:21:17.494Z,1.10
2022-09-10T09:25:30.813Z,0.63
2022-09-10T09:29:38.129Z,0.70
2022-09-10T09:33:40.068Z,0.60
2022-09-10T09:37:49.495Z,1.00
2022-09-10T09:42:24.120Z,1.07
2022-09-10T09:46:26.213Z,0.90
2022-09-10T09:50:28.633Z,0.60
2022-09-10T09:55:03.322Z,0.90
2022-09-10T10:03:28.481Z,0.93
2022-09-10T10:07:32.688Z,0.90
2022-09-10T10:12:02.885Z,0.90
2022-09-10T10:16:37.585Z,0.77
2022-09-10T10:21:11.608Z,0.80
2022-09-10T10:25:43.002Z,0.63
2022-09-10T10:30:04.057Z,0.70
2022-09-10T10:34:18.407Z,0.57
2022-09-10T10:38:42.605Z,1.10
2022-09-10T10:42:54.156Z,0.60
2022-09-10T10:47:42.914Z,0.70
2022-09-10T10:52:27.494Z,0.60
2022-09-10T10:56:42.665Z,0.40
2022-09-10T11:01:18.338Z,1.00
2022-09-10T11:05:38.837Z,0.93
2022-09-10T11:09:51.129Z,0.70
2022-09-10T11:14:32.497Z,0.90
2022-09-10T11:19:13.903Z,0.77
2022-09-10T11:29:01.892Z,0.83
2022-09-10T11:34:04.079Z,0.80
2022-09-10T11:38:32.307Z,0.77
2022-09-10T11:42:54.132Z,0.63
2022-09-10T11:47:29.453Z,0.70
2022-09-10T11:51:46.413Z,0.67
2022-09-10T11:56:15.208Z,0.90
2022-09-10T12:00:34.270Z,0.83
2022-09-10T12:04:47.670Z,1.27
2022-09-10T12:09:00.983Z,1.10
2022-09-10T12:13:08.350Z,1.20
2022-09-10T12:17:36.829Z,0.90
2022-09-10T12:21:42.793Z,1.17
2022-09-10T12:25:44.503Z,1.00
2022-09-10T12:29:46.539Z,0.93
2022-09-10T12:33:48.242Z,0.90
2022-09-10T12:37:52.910Z,0.67
2022-09-10T12:42:02.616Z,1.00
2022-09-10T12:46:18.991Z,0.73
2022-09-10T12:50:28.952Z,0.80
2022-09-10T12:54:47.034Z,0.80
2022-09-10T12:59:17.480Z,0.70
2022-09-10T13:03:28.772Z,0.87
2022-09-10T13:07:37.343Z,0.70
2022-09-10T13:11:39.185Z,0.80
2022-09-10T13:15:50.337Z,1.00
2022-09-10T13:19:52.224Z,1.00
2022-09-10T13:23:54.982Z,0.90
2022-09-10T13:27:57.052Z,0.80
2022-09-10T13:32:14.160Z,0.90
2022-09-10T13:36:41.667Z,0.90
2022-09-10T13:41:14.406Z,0.90
2022-09-10T13:45:38.396Z,0.80
2022-09-10T13:50:02.631Z,0.73
2022-09-10T13:54:11.439Z,0.40
2022-09-10T13:58:16.479Z,0.60
2022-09-10T14:02:19.812Z,0.47
2022-09-10T14:06:22.765Z,0.63
2022-09-10T14:10:24.516Z,0.50
2022-09-10T14:14:32.362Z,0.63
2022-09-10T14:19:01.819Z,0.60
2022-09-10T14:23:15.259Z,0.93
2022-09-10T14:27:27.641Z,0.87
2022-09-10T14:31:34.286Z,0.80
2022-09-10T14:35:44.323Z,0.90
2022-09-10T14:39:46.123Z,1.07
2022-09-10T14:43:48.200Z,0.97
2022-09-10T14:47:53.928Z,0.70
2022-09-10T14:51:57.144Z,0.87
2022-09-10T14:55:59.261Z,0.70
2022-09-10T15:00:01.085Z,0.70
2022-09-10T15:04:03.475Z,1.00
2022-09-10T15:08:05.293Z,1.10
2022-09-10T15:12:15.390Z,1.10
2022-09-10T15:16:17.780Z,0.90
2022-09-10T15:20:21.256Z,1.00
2022-09-10T15:24:24.579Z,1.00
2022-09-10T15:28:26.351Z,1.40
2022-09-10T15:32:28.172Z,1.00
2022-09-10T15:36:29.952Z,1.10
2022-09-10T15:40:31.832Z,0.77
2022-09-10T15:44:33.710Z,0.90
2022-09-10T15:48:35.613Z,1.00
2022-09-10T15:52:38.245Z,1.23
2022-09-10T15:56:40.466Z,1.20
2022-09-10T16:00:42.431Z,0.90
2022-09-10T16:04:46.881Z,0.80
2022-09-10T16:09:01.013Z,1.60
2022-09-10T16:13:02.696Z,1.13
2022-09-10T16:17:10.389Z,0.90
2022-09-10T16:21:17.189Z,0.80
2022-09-10T16:25:19.353Z,1.00
2022-09-10T16:29:21.335Z,1.00
2022-09-10T16:33:25.744Z,1.40
2022-09-10T16:37:28.386Z,1.00
2022-09-10T16:41:30.924Z,1.40
2022-09-10T16:45:35.570Z,1.40
2022-09-10T16:49:37.320Z,1.23
2022-09-10T16:53:39.464Z,1.60
2022-09-10T16:57:41.318Z,1.40
2022-09-10T17:01:44.153Z,2.60
2022-09-10T17:05:46.938Z,1.40
2022-09-10T17:09:48.839Z,1.30
2022-09-10T17:14:06.036Z,1.57
2022-09-10T17:18:08.023Z,1.67
2022-09-10T17:22:10.903Z,1.43
2022-09-10T17:26:12.978Z,1.90
2022-09-10T17:30:14.934Z,2.07
2022-09-10T17:34:24.678Z,1.30
2022-09-10T17:38:29.113Z,1.83
2022-09-10T17:42:34.150Z,2.00
2022-09-10T17:46:38.815Z,1.67
2022-09-10T17:50:50.322Z,1.80
2022-09-10T17:54:56.577Z,2.33
2022-09-10T17:59:02.701Z,2.67
2022-09-10T18:03:05.161Z,2.43
2022-09-10T18:07:07.160Z,2.93
2022-09-10T18:11:12.263Z,2.27
2022-09-10T18:15:14.252Z,2.47
2022-09-10T18:19:21.605Z,3.07
2022-09-10T18:23:23.583Z,2.90
2022-09-10T18:27:26.450Z,2.77
2022-09-10T18:31:33.845Z,3.57
2022-09-10T18:36:07.485Z,3.47
2022-09-10T18:40:10.843Z,3.53
2022-09-10T18:44:28.366Z,3.57
2022-09-10T18:48:53.569Z,3.40
2022-09-10T18:52:58.937Z,3.30
2022-09-10T18:57:10.950Z,3.33
2022-09-10T19:01:14.459Z,3.70
2022-09-10T19:05:16.589Z,3.60
2022-09-10T19:09:23.106Z,5.10
2022-09-10T19:13:31.485Z,4.70
2022-09-10T19:17:37.694Z,4.40
2022-09-10T19:21:43.049Z,3.43
2022-09-10T19:25:53.483Z,3.50
2022-09-10T19:29:55.877Z,2.93
2022-09-10T19:34:05.355Z,3.03
2022-09-10T19:38:27.234Z,3.10
2022-09-10T19:42:30.362Z,2.73
2022-09-10T19:46:33.522Z,2.77
2022-09-10T19:50:35.412Z,2.93
2022-09-10T19:54:42.291Z,3.03
2022-09-10T19:58:44.339Z,3.00
2022-09-10T20:02:49.975Z,2.70
2022-09-10T20:06:52.270Z,2.80
2022-09-10T20:10:56.846Z,3.00
2022-09-10T20:14:58.607Z,2.30
2022-09-10T20:19:02.425Z,2.43
2022-09-10T20:23:04.275Z,2.27
2022-09-10T20:27:06.029Z,2.03
2022-09-10T20:31:09.817Z,2.00
2022-09-10T20:35:14.857Z,2.20
2022-09-10T20:39:18.410Z,2.30
2022-09-10T20:43:23.115Z,2.47
2022-09-10T20:47:30.807Z,2.20
2022-09-10T20:51:40.611Z,2.40
2022-09-10T20:55:44.783Z,3.17
2022-09-10T20:59:47.759Z,2.60
2022-09-10T21:03:53.028Z,2.30
2022-09-10T21:07:55.503Z,2.00
2022-09-10T21:11:57.400Z,2.30
2022-09-10T21:16:11.163Z,2.00
2022-09-10T21:20:13.421Z,2.17
2022-09-10T21:24:22.401Z,1.87
2022-09-10T21:28:24.256Z,2.30
2022-09-10T21:32:26.017Z,2.03
2022-09-10T21:36:28.154Z,2.40
2022-09-10T21:40:31.179Z,1.97
2022-09-10T21:44:32.988Z,1.77
2022-09-10T21:48:37.514Z,1.80
2022-09-10T21:52:41.022Z,1.80
2022-09-10T21:56:42.750Z,1.50
2022-09-10T22:00:44.547Z,2.00
2022-09-10T22:04:46.395Z,1.70
2022-09-10T22:08:50.655Z,1.73
2022-09-10T22:12:52.870Z,1.70
2022-09-10T22:16:55.136Z,1.60
2022-09-10T22:21:00.940Z,1.63
2022-09-10T22:25:02.891Z,1.60
2022-09-10T22:29:04.616Z,1.70
2022-09-10T22:33:06.458Z,1.50
2022-09-10T22:37:08.190Z,1.80
2022-09-10T22:41:10.315Z,1.57
2022-09-10T22:45:12.531Z,1.57
2022-09-10T22:49:16.082Z,1.80
2022-09-10T22:53:18.018Z,1.57
2022-09-10T22:57:19.754Z,1.47
2022-09-10T23:01:24.360Z,1.90
2022-09-10T23:05:26.151Z,1.80
2022-09-10T23:09:28.034Z,1.80
2022-09-10T23:13:29.842Z,1.60
2022-09-10T23:17:31.805Z,1.80
2022-09-10T23:21:34.501Z,1.70
2022-09-10T23:25:36.285Z,1.90
2022-09-10T23:29:37.998Z,2.17
2022-09-10T23:33:48.687Z,2.00
2022-09-10T23:37:51.258Z,1.80
2022-09-10T23:41:56.669Z,1.93
2022-09-10T23:45:58.982Z,1.80
2022-09-10T23:50:00.831Z,2.07
2022-09-10T23:54:02.954Z,1.90
2022-09-10T23:58:04.652Z,2.10
